sensor_id;sensor_type;location;lat;lon;timestamp;temperature;humidity
38622;DHT22;24380;51.132;5.360;2023-04-01T00:06:41;9.70;99.90
38622;DHT22;24380;51.132;5.360;2023-04-01T00:09:09;9.70;99.90
38622;DHT22;24380;51.132;5.360;2023-04-01T00:11:36;9.70;99.90
38622;DHT22;24380;51.132;5.360;2023-04-01T00:14:06;9.60;99.90
38622;DHT22;24380;51.132;5.360;2023-04-01T00:16:34;9.70;99.90
38622;DHT22;24380;51.132;5.360;2023-04-01T00:19:02;9.70;99.90
38622;DHT22;24380;51.132;5.360;2023-04-01T00:21:29;9.70;99.90
38622;DHT22;24380;51.132;5.360;2023-04-01T00:23:57;9.70;99.90
38622;DHT22;24380;51.132;5.360;2023-04-01T00:26:25;9.70;99.90
38622;DHT22;24380;51.132;5.360;2023-04-01T00:28:53;9.70;99.90
38622;DHT22;24380;51.132;5.360;2023-04-01T00:31:21;9.70;99.90
38622;DHT22;24380;51.132;5.360;2023-04-01T00:33:49;9.60;99.90
38622;DHT22;24380;51.132;5.360;2023-04-01T00:38:52;9.60;99.90
38622;DHT22;24380;51.132;5.360;2023-04-01T00:41:20;9.70;99.90
38622;DHT22;24380;51.132;5.360;2023-04-01T00:43:50;9.60;99.90
38622;DHT22;24380;51.132;5.360;2023-04-01T00:46:18;9.60;99.90
38622;DHT22;24380;51.132;5.360;2023-04-01T00:48:51;9.60;99.90
38622;DHT22;24380;51.132;5.360;2023-04-01T00:51:25;9.60;99.90
38622;DHT22;24380;51.132;5.360;2023-04-01T00:56:31;9.60;99.90
38622;DHT22;24380;51.132;5.360;2023-04-01T00:59:02;9.70;99.90
38622;DHT22;24380;51.132;5.360;2023-04-01T01:01:30;9.60;99.90
38622;DHT22;24380;51.132;5.360;2023-04-01T01:03:58;9.60;99.90
38622;DHT22;24380;51.132;5.360;2023-04-01T01:06:34;9.60;99.90
38622;DHT22;24380;51.132;5.360;2023-04-01T01:09:15;9.60;99.90
38622;DHT22;24380;51.132;5.360;2023-04-01T01:11:49;9.70;99.90
38622;DHT22;24380;51.132;5.360;2023-04-01T01:14:29;9.60;99.90
38622;DHT22;24380;51.132;5.360;2023-04-01T01:16:53;9.60;99.90
38622;DHT22;24380;51.132;5.360;2023-04-01T01:27:37;9.70;99.90
38622;DHT22;24380;51.132;5.360;2023-04-01T01:33:28;9.70;99.90
38622;DHT22;24380;51.132;5.360;2023-04-01T01:35:54;9.60;99.90
38622;DHT22;24380;51.132;5.360;2023-04-01T01:38:26;9.70;99.90
38622;DHT22;24380;51.132;5.360;2023-04-01T01:40:56;9.70;99.90
38622;DHT22;24380;51.132;5.360;2023-04-01T01:43:36;9.70;99.90
38622;DHT22;24380;51.132;5.360;2023-04-01T01:45:57;9.60;99.90
38622;DHT22;24380;51.132;5.360;2023-04-01T01:48:27;9.60;99.90
38622;DHT22;24380;51.132;5.360;2023-04-01T01:50:55;9.70;99.90
38622;DHT22;24380;51.132;5.360;2023-04-01T01:53:22;9.70;99.90
38622;DHT22;24380;51.132;5.360;2023-04-01T01:55:50;9.60;99.90
38622;DHT22;24380;51.132;5.360;2023-04-01T02:01:00;9.70;99.90
38622;DHT22;24380;51.132;5.360;2023-04-01T02:03:30;9.70;99.90
38622;DHT22;24380;51.132;5.360;2023-04-01T02:06:00;9.70;99.90
38622;DHT22;24380;51.132;5.360;2023-04-01T02:08:47;9.70;99.90
38622;DHT22;24380;51.132;5.360;2023-04-01T02:11:16;9.90;99.90
38622;DHT22;24380;51.132;5.360;2023-04-01T02:14:04;9.90;99.90
38622;DHT22;24380;51.132;5.360;2023-04-01T02:16:38;9.90;99.90
38622;DHT22;24380;51.132;5.360;2023-04-01T02:19:06;9.90;99.90
38622;DHT22;24380;51.132;5.360;2023-04-01T02:21:35;9.90;99.90
38622;DHT22;24380;51.132;5.360;2023-04-01T02:24:07;9.80;99.90
38622;DHT22;24380;51.132;5.360;2023-04-01T02:26:34;9.80;99.90
38622;DHT22;24380;51.132;5.360;2023-04-01T02:29:03;9.80;99.90
38622;DHT22;24380;51.132;5.360;2023-04-01T02:31:32;9.80;99.90
38622;DHT22;24380;51.132;5.360;2023-04-01T02:34:01;9.90;99.90
38622;DHT22;24380;51.132;5.360;2023-04-01T02:36:29;9.90;99.90
38622;DHT22;24380;51.132;5.360;2023-04-01T02:38:58;9.90;99.90
38622;DHT22;24380;51.132;5.360;2023-04-01T02:41:28;9.80;99.90
38622;DHT22;24380;51.132;5.360;2023-04-01T02:43:57;9.90;99.90
38622;DHT22;24380;51.132;5.360;2023-04-01T02:46:25;9.90;99.90
38622;DHT22;24380;51.132;5.360;2023-04-01T02:48:53;9.90;99.90
38622;DHT22;24380;51.132;5.360;2023-04-01T02:51:20;9.90;99.90
38622;DHT22;24380;51.132;5.360;2023-04-01T02:53:48;9.80;99.90
38622;DHT22;24380;51.132;5.360;2023-04-01T02:56:15;9.70;99.90
38622;DHT22;24380;51.132;5.360;2023-04-01T02:58:43;9.70;99.90
38622;DHT22;24380;51.132;5.360;2023-04-01T03:01:11;9.80;99.90
38622;DHT22;24380;51.132;5.360;2023-04-01T03:03:39;9.80;99.90
38622;DHT22;24380;51.132;5.360;2023-04-01T03:06:09;9.80;99.90
38622;DHT22;24380;51.132;5.360;2023-04-01T03:08:37;9.80;99.90
38622;DHT22;24380;51.132;5.360;2023-04-01T03:11:04;9.80;99.90
38622;DHT22;24380;51.132;5.360;2023-04-01T03:13:32;9.80;99.90
38622;DHT22;24380;51.132;5.360;2023-04-01T03:16:00;9.80;99.90
38622;DHT22;24380;51.132;5.360;2023-04-01T03:18:28;9.80;99.90
38622;DHT22;24380;51.132;5.360;2023-04-01T03:20:55;9.80;99.90
38622;DHT22;24380;51.132;5.360;2023-04-01T03:23:23;9.80;99.90
38622;DHT22;24380;51.132;5.360;2023-04-01T03:25:51;9.80;99.90
38622;DHT22;24380;51.132;5.360;2023-04-01T03:28:19;9.70;99.90
38622;DHT22;24380;51.132;5.360;2023-04-01T03:30:46;9.70;99.90
38622;DHT22;24380;51.132;5.360;2023-04-01T03:33:14;9.60;99.90
38622;DHT22;24380;51.132;5.360;2023-04-01T03:35:41;9.70;99.90
38622;DHT22;24380;51.132;5.360;2023-04-01T03:38:09;9.60;99.90
38622;DHT22;24380;51.132;5.360;2023-04-01T03:40:36;9.60;99.90
38622;DHT22;24380;51.132;5.360;2023-04-01T03:43:04;9.60;99.90
38622;DHT22;24380;51.132;5.360;2023-04-01T03:45:33;9.60;99.90
38622;DHT22;24380;51.132;5.360;2023-04-01T03:48:01;9.70;99.90
38622;DHT22;24380;51.132;5.360;2023-04-01T03:50:28;9.70;99.90
38622;DHT22;24380;51.132;5.360;2023-04-01T03:52:56;9.70;99.90
38622;DHT22;24380;51.132;5.360;2023-04-01T03:55:23;9.60;99.90
38622;DHT22;24380;51.132;5.360;2023-04-01T03:57:51;9.60;99.90
38622;DHT22;24380;51.132;5.360;2023-04-01T04:00:19;9.60;99.90
38622;DHT22;24380;51.132;5.360;2023-04-01T04:02:47;9.60;99.90
38622;DHT22;24380;51.132;5.360;2023-04-01T04:05:14;9.60;99.90
38622;DHT22;24380;51.132;5.360;2023-04-01T04:07:42;9.50;99.90
38622;DHT22;24380;51.132;5.360;2023-04-01T04:10:10;9.40;99.90
38622;DHT22;24380;51.132;5.360;2023-04-01T04:12:37;9.40;99.90
38622;DHT22;24380;51.132;5.360;2023-04-01T04:15:07;9.50;99.90
38622;DHT22;24380;51.132;5.360;2023-04-01T04:17:35;9.50;99.90
38622;DHT22;24380;51.132;5.360;2023-04-01T04:20:03;9.50;99.90
38622;DHT22;24380;51.132;5.360;2023-04-01T04:22:30;9.40;99.90
38622;DHT22;24380;51.132;5.360;2023-04-01T04:24:58;9.50;99.90
38622;DHT22;24380;51.132;5.360;2023-04-01T04:27:26;9.50;99.90
38622;DHT22;24380;51.132;5.360;2023-04-01T04:29:53;9.50;99.90
38622;DHT22;24380;51.132;5.360;2023-04-01T04:32:21;9.50;99.90
38622;DHT22;24380;51.132;5.360;2023-04-01T04:34:48;9.60;99.90
38622;DHT22;24380;51.132;5.360;2023-04-01T04:37:16;9.60;99.90
38622;DHT22;24380;51.132;5.360;2023-04-01T04:39:43;9.50;99.90
38622;DHT22;24380;51.132;5.360;2023-04-01T04:42:11;9.50;99.90
38622;DHT22;24380;51.132;5.360;2023-04-01T04:44:39;9.50;99.90
38622;DHT22;24380;51.132;5.360;2023-04-01T04:47:06;9.50;99.90
38622;DHT22;24380;51.132;5.360;2023-04-01T04:49:34;9.60;99.90
38622;DHT22;24380;51.132;5.360;2023-04-01T04:52:02;9.50;99.90
38622;DHT22;24380;51.132;5.360;2023-04-01T04:54:29;9.60;99.90
38622;DHT22;24380;51.132;5.360;2023-04-01T04:56:57;9.60;99.90
38622;DHT22;24380;51.132;5.360;2023-04-01T04:59:24;9.50;99.90
38622;DHT22;24380;51.132;5.360;2023-04-01T05:01:52;9.50;99.90
38622;DHT22;24380;51.132;5.360;2023-04-01T05:04:19;9.60;99.90
38622;DHT22;24380;51.132;5.360;2023-04-01T05:06:47;9.50;99.90
38622;DHT22;24380;51.132;5.360;2023-04-01T05:09:15;9.50;99.90
38622;DHT22;24380;51.132;5.360;2023-04-01T05:11:42;9.50;99.90
38622;DHT22;24380;51.132;5.360;2023-04-01T05:14:15;9.50;99.90
38622;DHT22;24380;51.132;5.360;2023-04-01T05:16:43;9.40;99.90
38622;DHT22;24380;51.132;5.360;2023-04-01T05:19:10;9.40;99.90
38622;DHT22;24380;51.132;5.360;2023-04-01T05:21:38;9.40;99.90
38622;DHT22;24380;51.132;5.360;2023-04-01T05:24:07;9.50;99.90
38622;DHT22;24380;51.132;5.360;2023-04-01T05:26:36;9.40;99.90
38622;DHT22;24380;51.132;5.360;2023-04-01T05:29:04;9.50;99.90
38622;DHT22;24380;51.132;5.360;2023-04-01T05:31:32;9.50;99.90
38622;DHT22;24380;51.132;5.360;2023-04-01T05:33:59;9.60;99.90
38622;DHT22;24380;51.132;5.360;2023-04-01T05:36:28;9.50;99.90
38622;DHT22;24380;51.132;5.360;2023-04-01T05:38:56;9.50;99.90
38622;DHT22;24380;51.132;5.360;2023-04-01T05:44:37;9.50;99.90
38622;DHT22;24380;51.132;5.360;2023-04-01T05:47:05;9.50;99.90
38622;DHT22;24380;51.132;5.360;2023-04-01T05:49:33;9.50;99.90
38622;DHT22;24380;51.132;5.360;2023-04-01T05:52:01;9.50;99.90
38622;DHT22;24380;51.132;5.360;2023-04-01T05:54:32;9.60;99.90
38622;DHT22;24380;51.132;5.360;2023-04-01T05:56:58;9.60;99.90
38622;DHT22;24380;51.132;5.360;2023-04-01T05:59:25;9.50;99.90
38622;DHT22;24380;51.132;5.360;2023-04-01T06:01:53;9.50;99.90
38622;DHT22;24380;51.132;5.360;2023-04-01T06:04:21;9.50;99.90
38622;DHT22;24380;51.132;5.360;2023-04-01T06:06:48;9.60;99.90
38622;DHT22;24380;51.132;5.360;2023-04-01T06:09:29;9.60;99.90
38622;DHT22;24380;51.132;5.360;2023-04-01T06:15:16;9.50;99.90
38622;DHT22;24380;51.132;5.360;2023-04-01T06:38:10;9.40;99.90
38622;DHT22;24380;51.132;5.360;2023-04-01T06:58:00;9.50;99.90
38622;DHT22;24380;51.132;5.360;2023-04-01T07:00:32;9.50;99.90
38622;DHT22;24380;51.132;5.360;2023-04-01T07:05:51;9.50;99.90
38622;DHT22;24380;51.132;5.360;2023-04-01T07:08:28;9.40;99.90
38622;DHT22;24380;51.132;5.360;2023-04-01T07:11:11;9.50;99.90
38622;DHT22;24380;51.132;5.360;2023-04-01T07:16:56;9.60;99.90
38622;DHT22;24380;51.132;5.360;2023-04-01T07:25:36;9.60;99.90
38622;DHT22;24380;51.132;5.360;2023-04-01T07:28:06;9.60;99.90
38622;DHT22;24380;51.132;5.360;2023-04-01T07:38:39;9.60;99.90
38622;DHT22;24380;51.132;5.360;2023-04-01T07:44:02;9.70;99.90
38622;DHT22;24380;51.132;5.360;2023-04-01T07:49:35;9.70;99.90
38622;DHT22;24380;51.132;5.360;2023-04-01T07:52:04;9.70;99.90
38622;DHT22;24380;51.132;5.360;2023-04-01T07:57:21;9.70;99.90
38622;DHT22;24380;51.132;5.360;2023-04-01T08:06:04;9.70;99.90
38622;DHT22;24380;51.132;5.360;2023-04-01T08:08:36;9.70;99.90
38622;DHT22;24380;51.132;5.360;2023-04-01T08:11:27;9.70;99.90
38622;DHT22;24380;51.132;5.360;2023-04-01T08:14:08;9.80;99.90
38622;DHT22;24380;51.132;5.360;2023-04-01T08:16:46;9.90;99.90
38622;DHT22;24380;51.132;5.360;2023-04-01T08:19:30;9.90;99.90
38622;DHT22;24380;51.132;5.360;2023-04-01T08:21:57;10.00;99.90
38622;DHT22;24380;51.132;5.360;2023-04-01T08:24:35;9.90;99.90
38622;DHT22;24380;51.132;5.360;2023-04-01T08:27:06;10.00;99.90
38622;DHT22;24380;51.132;5.360;2023-04-01T08:29:39;10.00;99.90
38622;DHT22;24380;51.132;5.360;2023-04-01T08:32:37;10.00;99.90
38622;DHT22;24380;51.132;5.360;2023-04-01T08:37:56;10.10;99.90
38622;DHT22;24380;51.132;5.360;2023-04-01T08:43:16;10.00;99.90
38622;DHT22;24380;51.132;5.360;2023-04-01T08:53:43;10.00;99.90
38622;DHT22;24380;51.132;5.360;2023-04-01T08:56:39;10.00;99.90
38622;DHT22;24380;51.132;5.360;2023-04-01T09:04:48;10.00;99.90
38622;DHT22;24380;51.132;5.360;2023-04-01T09:12:42;10.00;99.90
38622;DHT22;24380;51.132;5.360;2023-04-01T09:15:45;10.20;99.90
38622;DHT22;24380;51.132;5.360;2023-04-01T09:21:02;10.20;99.90
38622;DHT22;24380;51.132;5.360;2023-04-01T09:23:40;10.20;99.90
38622;DHT22;24380;51.132;5.360;2023-04-01T09:26:21;10.20;99.90
38622;DHT22;24380;51.132;5.360;2023-04-01T09:29:02;10.20;99.90
38622;DHT22;24380;51.132;5.360;2023-04-01T09:34:53;10.20;99.90
38622;DHT22;24380;51.132;5.360;2023-04-01T09:45:43;10.10;99.90
38622;DHT22;24380;51.132;5.360;2023-04-01T09:59:19;10.00;99.90
38622;DHT22;24380;51.132;5.360;2023-04-01T10:01:57;10.00;99.90
38622;DHT22;24380;51.132;5.360;2023-04-01T10:07:45;10.10;99.90
38622;DHT22;24380;51.132;5.360;2023-04-01T10:10:25;10.20;99.90
38622;DHT22;24380;51.132;5.360;2023-04-01T10:18:36;10.40;99.90
38622;DHT22;24380;51.132;5.360;2023-04-01T10:24:29;10.50;99.90
38622;DHT22;24380;51.132;5.360;2023-04-01T10:27:28;10.60;99.90
38622;DHT22;24380;51.132;5.360;2023-04-01T10:30:17;10.60;99.90
38622;DHT22;24380;51.132;5.360;2023-04-01T10:38:14;10.60;99.90
38622;DHT22;24380;51.132;5.360;2023-04-01T10:54:37;10.70;99.90
38622;DHT22;24380;51.132;5.360;2023-04-01T10:57:40;10.60;99.90
38622;DHT22;24380;51.132;5.360;2023-04-01T11:00:12;10.70;99.90
38622;DHT22;24380;51.132;5.360;2023-04-01T11:11:47;10.70;99.90
38622;DHT22;24380;51.132;5.360;2023-04-01T11:14:34;10.60;99.90
38622;DHT22;24380;51.132;5.360;2023-04-01T11:28:43;10.80;99.90
38622;DHT22;24380;51.132;5.360;2023-04-01T11:39:11;10.90;99.90
38622;DHT22;24380;51.132;5.360;2023-04-01T11:44:27;10.80;99.90
38622;DHT22;24380;51.132;5.360;2023-04-01T11:47:19;10.90;99.90
38622;DHT22;24380;51.132;5.360;2023-04-01T11:53:23;11.00;99.90
38622;DHT22;24380;51.132;5.360;2023-04-01T12:18:40;10.90;99.90
38622;DHT22;24380;51.132;5.360;2023-04-01T12:24:02;11.00;99.90
38622;DHT22;24380;51.132;5.360;2023-04-01T12:26:51;10.90;99.90
38622;DHT22;24380;51.132;5.360;2023-04-01T12:29:38;10.90;99.90
38622;DHT22;24380;51.132;5.360;2023-04-01T12:47:06;10.80;99.90
38622;DHT22;24380;51.132;5.360;2023-04-01T13:01:10;11.00;99.90
38622;DHT22;24380;51.132;5.360;2023-04-01T13:06:33;10.80;99.90
38622;DHT22;24380;51.132;5.360;2023-04-01T13:20:14;10.50;99.90
38622;DHT22;24380;51.132;5.360;2023-04-01T13:26:02;10.50;99.90
38622;DHT22;24380;51.132;5.360;2023-04-01T13:28:34;10.60;99.90
38622;DHT22;24380;51.132;5.360;2023-04-01T13:31:08;10.60;99.90
38622;DHT22;24380;51.132;5.360;2023-04-01T13:37:16;10.70;99.90
38622;DHT22;24380;51.132;5.360;2023-04-01T13:40:13;10.60;99.90
38622;DHT22;24380;51.132;5.360;2023-04-01T13:43:01;10.70;99.90
38622;DHT22;24380;51.132;5.360;2023-04-01T13:48:30;10.80;99.90
38622;DHT22;24380;51.132;5.360;2023-04-01T13:51:08;10.80;99.90
38622;DHT22;24380;51.132;5.360;2023-04-01T13:59:10;10.70;99.90
38622;DHT22;24380;51.132;5.360;2023-04-01T14:07:26;10.70;99.90
38622;DHT22;24380;51.132;5.360;2023-04-01T14:09:54;10.60;99.90
38622;DHT22;24380;51.132;5.360;2023-04-01T14:12:35;10.60;99.90
38622;DHT22;24380;51.132;5.360;2023-04-01T14:17:54;10.70;99.90
38622;DHT22;24380;51.132;5.360;2023-04-01T14:37:36;10.80;99.90
38622;DHT22;24380;51.132;5.360;2023-04-01T14:40:21;10.80;99.90
38622;DHT22;24380;51.132;5.360;2023-04-01T14:43:13;10.80;99.90
38622;DHT22;24380;51.132;5.360;2023-04-01T14:45:45;10.70;99.90
38622;DHT22;24380;51.132;5.360;2023-04-01T14:48:32;10.90;99.90
38622;DHT22;24380;51.132;5.360;2023-04-01T14:51:22;10.80;99.90
38622;DHT22;24380;51.132;5.360;2023-04-01T14:54:08;10.80;99.90
38622;DHT22;24380;51.132;5.360;2023-04-01T14:56:44;10.80;99.90
38622;DHT22;24380;51.132;5.360;2023-04-01T14:59:14;10.90;99.90
38622;DHT22;24380;51.132;5.360;2023-04-01T15:13:06;10.70;99.90
38622;DHT22;24380;51.132;5.360;2023-04-01T15:21:26;10.80;99.90
38622;DHT22;24380;51.132;5.360;2023-04-01T15:23:58;10.80;99.90
38622;DHT22;24380;51.132;5.360;2023-04-01T15:37:35;10.80;99.90
38622;DHT22;24380;51.132;5.360;2023-04-01T15:40:14;10.80;99.90
38622;DHT22;24380;51.132;5.360;2023-04-01T15:42:48;10.80;99.90
38622;DHT22;24380;51.132;5.360;2023-04-01T15:45:31;10.70;99.90
38622;DHT22;24380;51.132;5.360;2023-04-01T15:48:17;10.70;99.90
38622;DHT22;24380;51.132;5.360;2023-04-01T15:51:06;10.60;99.90
38622;DHT22;24380;51.132;5.360;2023-04-01T15:56:23;10.50;99.90
38622;DHT22;24380;51.132;5.360;2023-04-01T16:07:28;10.60;99.90
38622;DHT22;24380;51.132;5.360;2023-04-01T16:10:21;10.70;99.90
38622;DHT22;24380;51.132;5.360;2023-04-01T16:24:00;10.60;99.90
38622;DHT22;24380;51.132;5.360;2023-04-01T16:26:37;10.60;99.90
38622;DHT22;24380;51.132;5.360;2023-04-01T16:31:43;10.40;99.90
38622;DHT22;24380;51.132;5.360;2023-04-01T16:34:17;10.30;99.90
38622;DHT22;24380;51.132;5.360;2023-04-01T16:36:47;10.40;99.90
38622;DHT22;24380;51.132;5.360;2023-04-01T16:42:22;10.40;99.90
38622;DHT22;24380;51.132;5.360;2023-04-01T16:47:49;10.40;99.90
38622;DHT22;24380;51.132;5.360;2023-04-01T16:50:24;10.30;99.90
38622;DHT22;24380;51.132;5.360;2023-04-01T16:53:14;10.30;99.90
38622;DHT22;24380;51.132;5.360;2023-04-01T16:55:51;10.20;99.90
38622;DHT22;24380;51.132;5.360;2023-04-01T16:58:35;10.20;99.90
38622;DHT22;24380;51.132;5.360;2023-04-01T17:01:09;10.20;99.90
38622;DHT22;24380;51.132;5.360;2023-04-01T17:03:49;10.20;99.90
38622;DHT22;24380;51.132;5.360;2023-04-01T17:20:55;10.10;99.90
38622;DHT22;24380;51.132;5.360;2023-04-01T17:25:35;10.10;99.90
38622;DHT22;24380;51.132;5.360;2023-04-01T17:36:58;9.80;99.90
38622;DHT22;24380;51.132;5.360;2023-04-01T17:39:02;9.90;99.90
38622;DHT22;24380;51.132;5.360;2023-04-01T17:47:32;9.70;99.90
38622;DHT22;24380;51.132;5.360;2023-04-01T17:55:38;9.90;99.90
38622;DHT22;24380;51.132;5.360;2023-04-01T17:58:21;9.80;99.90
38622;DHT22;24380;51.132;5.360;2023-04-01T18:01:09;9.70;99.90
38622;DHT22;24380;51.132;5.360;2023-04-01T18:04:10;9.80;99.90
38622;DHT22;24380;51.132;5.360;2023-04-01T18:06:51;9.90;99.90
38622;DHT22;24380;51.132;5.360;2023-04-01T18:12:15;9.90;99.90
38622;DHT22;24380;51.132;5.360;2023-04-01T18:17:24;9.90;99.90
38622;DHT22;24380;51.132;5.360;2023-04-01T18:20:15;9.80;99.90
38622;DHT22;24380;51.132;5.360;2023-04-01T18:23:20;9.90;99.90
38622;DHT22;24380;51.132;5.360;2023-04-01T18:25:46;9.80;99.90
38622;DHT22;24380;51.132;5.360;2023-04-01T18:28:36;9.90;99.90
38622;DHT22;24380;51.132;5.360;2023-04-01T18:31:07;9.80;99.90
38622;DHT22;24380;51.132;5.360;2023-04-01T18:33:48;9.80;99.90
38622;DHT22;24380;51.132;5.360;2023-04-01T18:36:55;9.80;99.90
38622;DHT22;24380;51.132;5.360;2023-04-01T18:50:37;9.80;99.90
38622;DHT22;24380;51.132;5.360;2023-04-01T18:56:39;9.90;99.90
38622;DHT22;24380;51.132;5.360;2023-04-01T18:58:42;9.80;99.90
38622;DHT22;24380;51.132;5.360;2023-04-01T19:01:11;9.90;99.90
38622;DHT22;24380;51.132;5.360;2023-04-01T19:06:34;9.90;99.90
38622;DHT22;24380;51.132;5.360;2023-04-01T19:09:22;9.90;99.90
38622;DHT22;24380;51.132;5.360;2023-04-01T19:15:02;9.90;99.90
38622;DHT22;24380;51.132;5.360;2023-04-01T19:17:50;9.90;99.90
38622;DHT22;24380;51.132;5.360;2023-04-01T19:20:24;10.00;99.90
38622;DHT22;24380;51.132;5.360;2023-04-01T19:25:35;10.00;99.90
38622;DHT22;24380;51.132;5.360;2023-04-01T19:28:29;10.00;99.90
38622;DHT22;24380;51.132;5.360;2023-04-01T19:30:57;10.10;99.90
38622;DHT22;24380;51.132;5.360;2023-04-01T19:33:31;10.00;99.90
38622;DHT22;24380;51.132;5.360;2023-04-01T19:41:52;10.10;99.90
38622;DHT22;24380;51.132;5.360;2023-04-01T19:50:38;10.20;99.90
38622;DHT22;24380;51.132;5.360;2023-04-01T19:55:47;10.30;99.90
38622;DHT22;24380;51.132;5.360;2023-04-01T20:01:15;10.30;99.90
38622;DHT22;24380;51.132;5.360;2023-04-01T20:03:54;10.40;99.90
38622;DHT22;24380;51.132;5.360;2023-04-01T20:06:44;10.50;99.90
38622;DHT22;24380;51.132;5.360;2023-04-01T20:25:18;10.70;99.90
38622;DHT22;24380;51.132;5.360;2023-04-01T20:28:11;10.80;99.90
38622;DHT22;24380;51.132;5.360;2023-04-01T20:33:47;10.80;99.90
38622;DHT22;24380;51.132;5.360;2023-04-01T20:50:26;10.60;99.90
38622;DHT22;24380;51.132;5.360;2023-04-01T21:01:29;10.50;99.90
38622;DHT22;24380;51.132;5.360;2023-04-01T21:07:10;10.30;99.90
38622;DHT22;24380;51.132;5.360;2023-04-01T21:20:22;10.40;99.90
38622;DHT22;24380;51.132;5.360;2023-04-01T21:22:52;10.40;99.90
38622;DHT22;24380;51.132;5.360;2023-04-01T21:28:23;10.20;99.90
38622;DHT22;24380;51.132;5.360;2023-04-01T21:34:25;10.20;99.90
38622;DHT22;24380;51.132;5.360;2023-04-01T21:39:40;10.20;99.90
38622;DHT22;24380;51.132;5.360;2023-04-01T21:45:02;10.00;99.90
38622;DHT22;24380;51.132;5.360;2023-04-01T21:53:51;10.10;99.90
38622;DHT22;24380;51.132;5.360;2023-04-01T21:56:37;10.00;99.90
38622;DHT22;24380;51.132;5.360;2023-04-01T22:02:21;9.90;99.90
38622;DHT22;24380;51.132;5.360;2023-04-01T22:05:12;9.80;99.90
38622;DHT22;24380;51.132;5.360;2023-04-01T22:07:45;9.70;99.90
38622;DHT22;24380;51.132;5.360;2023-04-01T22:15:40;9.70;99.90
38622;DHT22;24380;51.132;5.360;2023-04-01T22:18:03;9.70;99.90
38622;DHT22;24380;51.132;5.360;2023-04-01T22:28:29;9.70;99.90
38622;DHT22;24380;51.132;5.360;2023-04-01T22:31:01;9.70;99.90
38622;DHT22;24380;51.132;5.360;2023-04-01T22:33:43;9.50;99.90
38622;DHT22;24380;51.132;5.360;2023-04-01T22:36:31;9.50;99.90
38622;DHT22;24380;51.132;5.360;2023-04-01T22:39:23;9.50;99.90
38622;DHT22;24380;51.132;5.360;2023-04-01T22:44:43;9.60;99.90
38622;DHT22;24380;51.132;5.360;2023-04-01T22:47:26;9.70;99.90
38622;DHT22;24380;51.132;5.360;2023-04-01T22:49:59;9.50;99.90
38622;DHT22;24380;51.132;5.360;2023-04-01T22:52:38;9.50;99.90
38622;DHT22;24380;51.132;5.360;2023-04-01T22:55:15;9.40;99.90
38622;DHT22;24380;51.132;5.360;2023-04-01T22:57:42;9.30;99.90
38622;DHT22;24380;51.132;5.360;2023-04-01T23:03:00;9.40;99.90
38622;DHT22;24380;51.132;5.360;2023-04-01T23:05:18;9.40;99.90
38622;DHT22;24380;51.132;5.360;2023-04-01T23:10:58;9.30;99.90
38622;DHT22;24380;51.132;5.360;2023-04-01T23:13:35;9.30;99.90
38622;DHT22;24380;51.132;5.360;2023-04-01T23:16:02;9.40;99.90
38622;DHT22;24380;51.132;5.360;2023-04-01T23:18:45;9.30;99.90
38622;DHT22;24380;51.132;5.360;2023-04-01T23:24:09;9.30;99.90
38622;DHT22;24380;51.132;5.360;2023-04-01T23:26:39;9.10;99.90
38622;DHT22;24380;51.132;5.360;2023-04-01T23:29:15;9.00;99.90
38622;DHT22;24380;51.132;5.360;2023-04-01T23:32:02;9.00;99.90
38622;DHT22;24380;51.132;5.360;2023-04-01T23:34:34;9.00;99.90
38622;DHT22;24380;51.132;5.360;2023-04-01T23:37:14;8.90;99.90
38622;DHT22;24380;51.132;5.360;2023-04-01T23:39:48;9.00;99.90
38622;DHT22;24380;51.132;5.360;2023-04-01T23:42:21;8.90;99.90
38622;DHT22;24380;51.132;5.360;2023-04-01T23:44:51;9.00;99.90
38622;DHT22;24380;51.132;5.360;2023-04-01T23:47:22;8.80;99.90
38622;DHT22;24380;51.132;5.360;2023-04-01T23:50:01;8.70;99.90
38622;DHT22;24380;51.132;5.360;2023-04-01T23:52:35;8.70;99.90
38622;DHT22;24380;51.132;5.360;2023-04-01T23:57:39;8.60;99.90
